Terminal Aerodrome Forecast
Issued by NWS Bismarck, ND

Home | Current Version | Previous Version | Text Only | Print | Product List | Glossary On
Versions: 1 2 3 4 5 6 7 8 9 10 11 12 13 14 15 16
657
FTUS43 KBIS 230534
TAFISN
TAF
KISN 230534Z 2306/2406 34008KT P6SM BKN012 OVC025
     FM230900 VRB03KT P6SM BKN030 BKN070
     FM231200 VRB03KT P6SM BKN050 BKN070
     FM232300 04008KT P6SM VCSH BKN030 BKN050=

USA.gov is the U.S. government's official web portal to all federal, state and local government web resources and services.